Terminal Aerodrome Forecast
Issued by NWS

Home | Current Version | Previous Version | Text Only | Print | Product List | Glossary On
Versions: 1 2 3 4 5 6 7 8 9 10 11 12 13 14 15 16 17 18 19 20 21 22 23 24 25 26 27 28 29 30 31 32 33 34 35 36 37 38 39 40 41 42 43 44 45 46
000
FTUS43 KDVN 241720
TAFCID
TAF
KCID 241720Z 2418/2518 16006KT P6SM SCT015 BKN025
     FM242000 16008KT P6SM SCT020 OVC035
     FM250300 22005KT P6SM BKN020
     FM251500 32008KT 6SM -RA BKN025 OVC050=

USA.gov is the U.S. government's official web portal to all federal, state and local government web resources and services.